Time;durP1;ratioP1;P1;durP2;ratioP2;P2;SDS_P1;SDS_P2;PMS_P1;PMS_P2;Temp;Humidity;BMP_temperature;BMP_pressure;BME280_temperature;BME280_humidity;BME280_pressure;Samples;Min_cycle;Max_cycle;Signal;HPM_P1;HPM_P2
2021/06/10 00:01:12;;;;;;;3.23;2.93;;;;;;;19.27;100.00;102127.02;1900899;73;39606;-76
2021/06/10 00:06:36;;;;;;;3.60;3.30;;;;;;;19.14;100.00;102134.89;1876975;75;86548;-74
2021/06/10 00:12:01;;;;;;;3.47;2.97;;;;;;;18.97;100.00;102129.03;1939792;72;39545;-76
2021/06/10 00:17:25;;;;;;;3.77;3.37;;;;;;;19.04;100.00;102122.41;1939797;73;39772;-76
2021/06/10 00:22:50;;;;;;;4.07;3.30;;;;;;;19.14;100.00;102115.73;1751761;81;85433;-73
2021/06/10 00:28:14;;;;;;;4.00;3.60;;;;;;;19.16;100.00;102109.23;1918232;72;39632;-76
2021/06/10 00:33:38;;;;;;;4.53;3.13;;;;;;;19.14;100.00;102107.29;1877019;75;86566;-74
2021/06/10 00:39:06;;;;;;;5.30;3.43;;;;;;;19.17;100.00;102101.86;1948791;73;39666;-76
2021/06/10 00:44:31;;;;;;;4.00;3.60;;;;;;;18.93;100.00;102100.66;1942913;73;39501;-76
2021/06/10 00:49:56;;;;;;;3.93;3.53;;;;;;;19.02;100.00;102104.42;1777323;79;86211;-76
2021/06/10 00:55:20;;;;;;;5.80;3.70;;;;;;;19.04;100.00;102100.71;1893939;74;39515;-76
2021/06/10 01:00:43;;;;;;;4.67;4.23;;;;;;;18.98;100.00;102114.65;1869383;76;86310;-76
2021/06/10 01:06:12;;;;;;;5.07;4.03;;;;;;;19.02;100.00;102125.55;1921141;73;39691;-77
2021/06/10 01:11:43;;;;;;;4.70;4.10;;;;;;;19.02;100.00;102125.55;1876965;75;85653;-76
2021/06/10 01:17:10;;;;;;;5.17;3.93;;;;;;;18.98;100.00;102120.28;1920377;73;39694;-77
2021/06/10 01:20:11;;;;;;;4.20;3.90;;;;;;;18.86;100.00;102128.97;1836251;76;934724;-77
2021/06/10 01:25:47;;;;;;;5.28;4.78;;;;;;;18.85;100.00;102109.83;1877196;75;86254;-76
2021/06/10 01:31:14;;;;;;;5.00;4.60;;;;;;;18.87;100.00;102091.23;1899697;73;39562;-76
2021/06/10 01:36:43;;;;;;;4.93;4.43;;;;;;;18.74;100.00;102076.56;1877115;75;86169;-76
2021/06/10 01:42:11;;;;;;;6.80;4.97;;;;;;;18.58;100.00;102059.10;1936363;72;39562;-76
2021/06/10 01:47:38;;;;;;;5.93;4.83;;;;;;;18.48;100.00;102048.83;1882122;75;85444;-76
2021/06/10 01:53:06;;;;;;;6.97;4.80;;;;;;;18.30;100.00;102052.55;1905750;73;39577;-74
2021/06/10 01:58:31;;;;;;;7.23;5.30;;;;;;;18.24;100.00;102047.31;1943086;73;39652;-76
2021/06/10 02:04:04;;;;;;;6.23;5.37;;;;;;;18.23;100.00;102044.26;1785015;79;86747;-75
2021/06/10 02:09:30;;;;;;;6.20;5.37;;;;;;;17.90;100.00;102075.71;1943251;73;39828;-76
2021/06/10 02:14:55;;;;;;;7.80;5.70;;;;;;;18.01;100.00;102070.22;1838266;77;86386;-76
2021/06/10 02:20:22;;;;;;;8.17;6.20;;;;;;;17.99;100.00;102079.51;1915872;73;39449;-75
2021/06/10 02:25:48;;;;;;;7.03;6.33;;;;;;;18.14;100.00;102066.02;1882749;75;86312;-75
2021/06/10 02:31:14;;;;;;;8.73;6.90;;;;;;;18.09;100.00;102058.27;1918949;73;39694;-76
2021/06/10 02:36:42;;;;;;;9.20;6.50;;;;;;;17.94;100.00;102059.34;1892589;74;86327;-75
2021/06/10 02:42:15;;;;;;;7.40;6.70;;;;;;;17.93;100.00;102049.79;1918216;73;39497;-76
2021/06/10 02:47:43;;;;;;;10.60;7.77;;;;;;;17.74;100.00;102023.13;1869275;77;86380;-76
2021/06/10 02:53:14;;;;;;;8.60;6.97;;;;;;;17.65;100.00;102034.22;1950053;73;39627;-76
2021/06/10 02:58:39;;;;;;;10.00;7.90;;;;;;;17.81;100.00;102054.48;1882139;75;86367;-76
2021/06/10 03:04:06;;;;;;;9.17;7.53;;;;;;;17.63;100.00;102051.09;1948262;72;39676;-76
2021/06/10 03:09:33;;;;;;;10.40;8.73;;;;;;;17.87;100.00;102048.22;1907682;74;86099;-76
2021/06/10 03:15:00;;;;;;;11.03;9.13;;;;;;;17.92;100.00;102046.73;1838592;77;86699;-76
2021/06/10 03:20:25;;;;;;;10.47;9.33;;;;;;;17.97;100.00;102048.88;1944147;73;39488;-75
2021/06/10 03:25:52;;;;;;;12.07;8.63;;;;;;;17.96;100.00;102064.09;1772985;80;86407;-76
2021/06/10 03:31:20;;;;;;;12.07;8.87;;;;;;;17.87;100.00;102057.48;1917263;73;39516;-77
2021/06/10 03:36:45;;;;;;;10.73;8.40;;;;;;;17.92;100.00;102075.69;1837519;77;86059;-76
2021/06/10 03:42:12;;;;;;;12.03;8.90;;;;;;;18.02;100.00;102071.86;1920352;73;39501;-76
2021/06/10 03:47:38;;;;;;;14.03;10.63;;;;;;;18.05;100.00;102065.08;1877258;75;86570;-75
2021/06/10 03:53:05;;;;;;;11.63;8.90;;;;;;;18.06;100.00;102068.13;1950997;72;39564;-76
2021/06/10 03:58:28;;;;;;;15.17;10.73;;;;;;;18.01;100.00;102075.23;1943383;72;39466;-76
2021/06/10 04:03:52;;;;;;;13.97;10.17;;;;;;;18.02;100.00;102062.86;1751872;80;85789;-76
2021/06/10 04:09:38;;;;;;;14.43;10.87;;;;;;;17.95;100.00;102067.20;1936759;73;86520;-75
2021/06/10 04:15:06;;;;;;;12.67;9.50;;;;;;;17.96;100.00;102074.51;1928722;73;39621;-76
2021/06/10 04:20:30;;;;;;;13.63;10.27;;;;;;;17.89;100.00;102092.30;1909302;73;39505;-76
2021/06/10 04:25:54;;;;;;;16.07;11.73;;;;;;;17.96;100.00;102083.78;1838162;77;86422;-76
2021/06/10 04:31:20;;;;;;;15.67;11.40;;;;;;;17.93;100.00;102094.20;1919401;73;39582;-76
2021/06/10 04:36:44;;;;;;;13.87;10.07;;;;;;;17.91;100.00;102096.50;1837495;77;86018;-76
2021/06/10 04:42:13;;;;;;;14.00;9.57;;;;;;;17.90;100.00;102097.63;1947183;73;39514;-76
2021/06/10 04:47:37;;;;;;;12.93;9.67;;;;;;;18.01;100.00;102093.52;1877106;75;86247;-77
2021/06/10 04:53:10;;;;;;;12.77;9.83;;;;;;;17.96;100.00;102097.00;1949913;73;39656;-77
2021/06/10 04:58:33;;;;;;;13.13;9.47;;;;;;;18.01;100.00;102101.14;1877699;75;85996;-76
2021/06/10 05:03:58;;;;;;;10.97;8.70;;;;;;;18.14;100.00;102102.59;1941982;70;86320;-77
2021/06/10 05:09:24;;;;;;;12.30;8.50;;;;;;;18.06;100.00;102113.69;1944447;73;39508;-77
2021/06/10 05:14:51;;;;;;;10.63;7.83;;;;;;;18.28;100.00;102111.66;1804767;77;85666;-77
2021/06/10 05:20:18;;;;;;;11.50;8.20;;;;;;;18.19;100.00;102114.33;1945687;73;39441;-77
2021/06/10 05:25:43;;;;;;;11.87;9.40;;;;;;;18.32;100.00;102116.93;1837248;77;86588;-77
2021/06/10 05:31:08;;;;;;;11.00;8.70;;;;;;;18.28;100.00;102114.47;1937173;72;39652;-79
2021/06/10 05:36:32;;;;;;;10.93;7.63;;;;;;;18.35;100.00;102107.90;1877254;75;85313;-76
2021/06/10 05:41:57;;;;;;;10.03;7.40;;;;;;;18.42;100.00;102111.98;1782289;79;86259;-76
2021/06/10 05:47:24;;;;;;;12.30;7.63;;;;;;;18.48;100.00;102116.36;1944876;73;39421;-77
2021/06/10 05:52:48;;;;;;;9.77;7.23;;;;;;;18.56;100.00;102121.34;1870585;75;86288;-75
2021/06/10 05:58:11;;;;;;;9.03;6.80;;;;;;;18.51;100.00;102122.80;1946635;73;39531;-76
2021/06/10 06:03:34;;;;;;;8.13;5.70;;;;;;;18.56;100.00;102126.98;1877039;75;86462;-79
2021/06/10 06:08:59;;;;;;;8.70;5.93;;;;;;;18.58;100.00;102126.08;1895768;74;86058;-78
2021/06/10 06:14:26;;;;;;;7.20;5.27;;;;;;;18.58;100.00;102128.89;1913300;73;39520;-78
2021/06/10 06:20:00;;;;;;;7.53;5.07;;;;;;;18.67;100.00;102134.66;1785054;79;86766;-77
2021/06/10 06:25:24;;;;;;;6.23;4.63;;;;;;;18.84;100.00;102121.39;1944315;73;39493;-77
2021/06/10 06:30:49;;;;;;;5.73;4.07;;;;;;;18.62;100.00;102115.88;1825219;77;86537;-78
2021/06/10 06:36:14;;;;;;;5.80;4.63;;;;;;;18.56;100.00;102106.44;1922224;73;39672;-77
2021/06/10 06:41:38;;;;;;;8.33;5.60;;;;;;;18.62;100.00;102099.55;1877327;75;86353;-77
2021/06/10 06:47:03;;;;;;;9.77;5.73;;;;;;;18.73;100.00;102091.77;1948962;73;39733;-77
2021/06/10 06:52:28;;;;;;;5.57;5.07;;;;;;;18.74;100.00;102103.30;1910383;73;39665;-77
2021/06/10 06:57:52;;;;;;;7.23;5.50;;;;;;;18.91;100.00;102108.56;1954592;70;86330;-78
2021/06/10 07:03:18;;;;;;;7.83;5.23;;;;;;;19.01;100.00;102104.73;1902034;73;39501;-79
2021/06/10 07:08:50;;;;;;;7.30;5.27;;;;;;;19.15;100.00;102101.92;1777463;80;86757;-82
2021/06/10 07:14:14;;;;;;;6.60;4.60;;;;;;;19.12;100.00;102107.63;1917947;73;39547;-77
2021/06/10 07:19:38;;;;;;;9.17;5.43;;;;;;;19.39;100.00;102112.40;1882377;75;86470;-77
2021/06/10 07:25:05;;;;;;;6.87;5.80;;;;;;;19.72;100.00;102123.01;1948884;73;39437;-77
2021/06/10 07:30:30;;;;;;;7.43;6.27;;;;;;;19.73;100.00;102124.66;1911661;73;40457;-77
2021/06/10 07:35:54;;;;;;;8.60;6.30;;;;;;;19.50;100.00;102134.47;1882630;75;86505;-80
2021/06/10 07:41:18;;;;;;;7.07;5.63;;;;;;;19.69;100.00;102122.20;1945512;72;39638;-80
2021/06/10 07:46:45;;;;;;;7.20;5.60;;;;;;;19.71;100.00;102135.43;1860485;75;86472;-82
2021/06/10 07:52:09;;;;;;;10.13;5.43;;;;;;;19.57;100.00;102129.80;1936941;73;39638;-81
2021/06/10 07:57:33;;;;;;;8.97;5.40;;;;;;;19.57;100.00;102142.48;1877024;75;86155;-75
2021/06/10 08:02:58;;;;;;;7.50;5.87;;;;;;;19.46;100.00;102135.41;1868394;76;86249;-75
2021/06/10 08:08:24;;;;;;;8.03;6.13;;;;;;;19.55;100.00;102135.74;1944585;73;39470;-78
2021/06/10 08:13:53;;;;;;;7.20;5.17;;;;;;;19.57;100.00;102138.83;1874821;75;85834;-79
2021/06/10 08:19:17;;;;;;;7.87;5.17;;;;;;;19.80;100.00;102124.50;1934519;72;39583;-79
2021/06/10 08:24:41;;;;;;;5.87;5.17;;;;;;;19.83;100.00;102129.50;1837304;77;86760;-79
2021/06/10 08:30:10;;;;;;;6.87;5.47;;;;;;;19.91;100.00;102125.92;1905644;72;39588;-78
2021/06/10 08:35:36;;;;;;;6.70;5.60;;;;;;;20.15;100.00;102127.04;1877084;75;86240;-79
2021/06/10 08:41:01;;;;;;;4.87;4.27;;;;;;;20.37;100.00;102124.84;1925667;73;39410;-76
2021/06/10 08:46:28;;;;;;;4.07;3.40;;;;;;;20.53;100.00;102128.14;1950406;73;39569;-78
2021/06/10 08:51:52;;;;;;;3.37;3.03;;;;;;;20.65;100.00;102122.16;1947653;71;86488;-86
2021/06/10 08:57:17;;;;;;;2.73;2.53;;;;;;;20.74;100.00;102127.86;1946123;73;48947;-78
2021/06/10 09:02:43;;;;;;;2.80;2.60;;;;;;;20.86;100.00;102128.93;1837291;77;85581;-78
2021/06/10 09:08:10;;;;;;;3.60;2.60;;;;;;;20.97;100.00;102125.80;1935941;72;39747;-77
2021/06/10 09:13:48;;;;;;;2.50;2.30;;;;;;;21.05;100.00;102130.70;1877150;75;86378;-79
2021/06/10 09:19:17;;;;;;;2.67;2.47;;;;;;;21.06;100.00;102129.52;1933514;72;39634;-78
2021/06/10 09:24:43;;;;;;;2.63;2.07;;;;;;;21.06;100.00;102124.70;1868871;76;86711;-78
2021/06/10 09:30:11;;;;;;;2.37;2.17;;;;;;;21.57;100.00;102125.50;1947414;72;39595;-78
2021/06/10 09:38:24;;;;;;;2.23;1.97;;;;;;;21.72;100.00;102121.38;1995282;69;39680;-78
2021/06/10 09:43:55;;;;;;;2.43;2.23;;;;;;;21.71;100.00;102116.88;1862198;76;86147;-78
2021/06/10 09:49:17;;;;;;;2.37;2.13;;;;;;;21.85;100.00;102119.58;1945677;73;39816;-78
2021/06/10 09:54:52;;;;;;;3.43;2.40;;;;;;;21.98;100.00;102119.46;1782970;80;86324;-77
2021/06/10 10:00:18;;;;;;;2.63;2.17;;;;;;;21.93;100.00;102115.38;1945811;73;39522;-76
2021/06/10 10:05:44;;;;;;;2.13;2.00;;;;;;;22.10;100.00;102114.55;1832639;77;85463;-77
2021/06/10 10:11:08;;;;;;;2.05;1.90;;;;;;;22.53;100.00;102118.19;1920976;73;39534;-78
2021/06/10 10:16:41;;;;;;;2.35;2.10;;;;;;;22.94;100.00;102120.44;1877537;75;85755;-78
2021/06/10 10:22:13;;;;;;;2.07;1.67;;;;;;;22.57;100.00;102129.67;1922192;73;39531;-79
2021/06/10 10:27:38;;;;;;;1.90;1.80;;;;;;;22.33;100.00;102137.28;1877164;75;86489;-79
2021/06/10 10:33:17;;;;;;;2.90;1.92;;;;;;;22.64;100.00;102131.40;1948589;73;39843;-78
2021/06/10 10:38:47;;;;;;;1.70;1.60;;;;;;;22.64;100.00;102139.89;1837693;77;86404;-78
2021/06/10 10:44:21;;;;;;;2.40;1.87;;;;;;;22.60;100.00;102131.23;1919417;73;39632;-78
2021/06/10 10:50:02;;;;;;;2.67;1.87;;;;;;;22.76;100.00;102133.59;1838810;77;86594;-78
2021/06/10 10:55:31;;;;;;;1.80;1.67;;;;;;;22.48;100.00;102133.93;1911750;73;39630;-78
2021/06/10 11:01:17;;;;;;;1.60;1.50;;;;;;;22.58;100.00;102125.09;1918014;73;39685;-78
2021/06/10 11:06:42;;;;;;;2.05;1.85;;;;;;;22.84;100.00;102113.73;1867649;75;86638;-78
2021/06/10 11:12:11;;;;;;;1.70;1.60;;;;;;;23.08;100.00;102110.31;1935191;72;39631;-79
2021/06/10 11:17:45;;;;;;;1.90;1.80;;;;;;;23.17;100.00;102108.27;1877219;75;85491;-80
2021/06/10 11:23:17;;;;;;;2.10;1.90;;;;;;;23.19;100.00;102093.16;1936512;72;39429;-79
2021/06/10 11:28:42;;;;;;;1.57;1.47;;;;;;;22.99;100.00;102093.34;1837414;77;85441;-79
2021/06/10 11:34:32;;;;;;;1.87;1.72;;;;;;;23.31;100.00;102090.45;1947075;73;39523;-78
2021/06/10 11:39:58;;;;;;;3.23;2.63;;;;;;;23.27;100.00;102073.05;1779879;79;86430;-79
2021/06/10 11:45:26;;;;;;;2.95;2.65;;;;;;;23.33;100.00;102076.75;1918349;73;39602;-80
2021/06/10 11:50:49;;;;;;;1.92;1.82;;;;;;;23.49;100.00;102077.05;1782355;80;86479;-73
2021/06/10 11:56:14;;;;;;;2.08;1.87;;;;;;;23.55;100.00;102069.98;1946476;73;39646;-79
2021/06/10 12:01:41;;;;;;;3.55;2.08;;;;;;;23.62;100.00;102069.45;1893388;75;86657;-76
2021/06/10 12:07:10;;;;;;;1.80;1.70;;;;;;;23.57;100.00;102078.98;1948741;73;39587;-76
2021/06/10 12:12:47;;;;;;;1.77;1.65;;;;;;;23.61;100.00;102065.77;1837672;77;86285;-75
2021/06/10 12:18:31;;;;;;;2.77;1.75;;;;;;;23.72;100.00;102052.83;1938371;73;39878;-78
2021/06/10 12:23:59;;;;;;;1.65;1.47;;;;;;;23.74;100.00;102051.91;1783161;79;86100;-79
2021/06/10 12:32:24;;;;;;;1.47;1.37;;;;;;;23.74;100.00;102044.82;2002174;69;39413;-76
2021/06/10 12:34:57;;;;;;;2.25;1.60;;;;;;;23.71;100.00;102045.48;1873924;75;932781;-73
2021/06/10 12:37:28;;;;;;;2.45;1.75;;;;;;;23.79;100.00;102051.68;1882991;75;936802;-77
2021/06/10 12:40:01;;;;;;;1.60;1.40;;;;;;;23.83;100.00;102049.01;1895847;75;934791;-73
2021/06/10 12:42:31;;;;;;;1.75;1.65;;;;;;;23.72;100.00;102051.41;1862386;74;936835;-72
2021/06/10 12:47:55;;;;;;;1.57;1.47;;;;;;;24.13;100.00;102037.80;1838433;77;86506;-69
2021/06/10 12:53:19;;;;;;;1.50;1.40;;;;;;;23.95;100.00;102037.71;1945290;73;39812;-73
2021/06/10 12:58:52;;;;;;;2.62;2.37;;;;;;;24.09;100.00;102034.59;1868771;76;86064;-71
2021/06/10 13:04:23;;;;;;;2.22;1.90;;;;;;;23.98;100.00;102031.33;1945813;73;39665;-76
2021/06/10 13:09:49;;;;;;;1.90;1.70;;;;;;;23.93;100.00;102029.53;1869667;76;86086;-72
2021/06/10 13:15:20;;;;;;;1.82;1.70;;;;;;;24.07;100.00;102032.67;1917106;73;39437;-78
2021/06/10 13:20:56;;;;;;;1.92;1.82;;;;;;;24.02;100.00;102026.03;1777347;79;86457;-77
2021/06/10 13:26:37;;;;;;;1.92;1.82;;;;;;;24.03;100.00;102027.70;1891794;74;86522;-76
2021/06/10 13:32:05;;;;;;;2.30;2.10;;;;;;;24.03;100.00;102025.45;1948883;73;39538;-77
2021/06/10 13:37:29;;;;;;;2.42;2.22;;;;;;;24.18;100.00;102011.20;1925463;73;39572;-77
2021/06/10 13:42:54;;;;;;;2.37;1.80;;;;;;;24.22;100.00;102009.33;1838301;77;86806;-73
2021/06/10 13:48:17;;;;;;;2.40;2.20;;;;;;;24.29;100.00;102001.09;1945818;73;39470;-76
2021/06/10 13:53:47;;;;;;;1.80;1.70;;;;;;;24.55;100.00;102000.80;1832424;78;86007;-70
2021/06/10 13:59:12;;;;;;;2.25;2.05;;;;;;;24.59;100.00;101996.06;1919391;72;40292;-71
2021/06/10 14:04:40;;;;;;;2.15;2.00;;;;;;;24.19;100.00;102000.93;1877122;75;86365;-78
2021/06/10 14:10:06;;;;;;;2.12;2.02;;;;;;;24.16;100.00;102004.48;1948670;73;39573;-72
2021/06/10 14:15:30;;;;;;;2.60;2.40;;;;;;;24.30;100.00;102003.55;1889431;73;39574;-76
2021/06/10 14:20:55;;;;;;;2.98;2.77;;;;;;;24.25;100.00;102000.96;1838358;77;86473;-76
2021/06/10 14:26:22;;;;;;;3.27;2.98;;;;;;;24.17;100.00;101999.63;1945106;73;39551;-72
2021/06/10 14:37:57;;;;;;;4.62;4.22;;;;;;;23.56;100.00;102007.23;1886716;73;86495;-78
2021/06/10 14:43:22;;;;;;;4.33;4.03;;;;;;;23.52;100.00;102000.59;1942077;72;39586;-78
2021/06/10 14:48:48;;;;;;;4.15;3.85;;;;;;;23.44;100.00;102012.00;1869496;75;86429;-78
2021/06/10 14:54:13;;;;;;;4.17;3.87;;;;;;;23.42;100.00;102010.05;1934697;72;39503;-78
2021/06/10 14:59:38;;;;;;;3.75;3.37;;;;;;;23.60;100.00;102007.37;1882393;75;85664;-70
2021/06/10 15:05:02;;;;;;;3.33;2.85;;;;;;;23.77;100.00;101997.30;1906960;72;39440;-77
2021/06/10 15:10:33;;;;;;;3.70;3.20;;;;;;;23.98;100.00;101998.11;1845845;78;86620;-82
2021/06/10 15:15:58;;;;;;;3.72;3.33;;;;;;;24.27;100.00;101988.64;1833616;78;86749;-76
2021/06/10 15:21:22;;;;;;;3.55;3.35;;;;;;;24.26;100.00;101990.44;1913982;73;39652;-79
2021/06/10 15:26:50;;;;;;;3.10;2.80;;;;;;;24.30;100.00;101987.13;1764124;79;85608;-78
2021/06/10 15:32:21;;;;;;;3.85;3.55;;;;;;;24.24;100.00;101981.42;1895038;73;39444;-77
2021/06/10 15:37:45;;;;;;;3.62;3.40;;;;;;;24.35;100.00;101983.45;1837563;77;85663;-78
2021/06/10 15:43:10;;;;;;;3.70;3.40;;;;;;;24.32;100.00;101979.91;1920573;73;39439;-73
2021/06/10 15:48:35;;;;;;;4.28;3.98;;;;;;;24.39;100.00;101977.31;1877341;75;86418;-78
2021/06/10 15:54:08;;;;;;;3.77;3.47;;;;;;;24.34;100.00;101972.47;1905608;72;39416;-77
2021/06/10 15:59:31;;;;;;;4.83;4.42;;;;;;;24.33;100.00;101973.05;1943287;73;39617;-76
2021/06/10 16:04:56;;;;;;;4.80;4.45;;;;;;;24.30;100.00;101961.58;1850123;75;85481;-77
2021/06/10 16:10:26;;;;;;;5.50;5.00;;;;;;;24.31;100.00;101961.79;1913330;73;39697;-76
2021/06/10 16:15:52;;;;;;;4.62;4.25;;;;;;;24.19;100.00;101959.76;1850618;76;86225;-78
2021/06/10 16:21:17;;;;;;;4.47;4.17;;;;;;;24.30;100.00;101964.41;1917124;73;39647;-77
2021/06/10 16:26:41;;;;;;;4.75;4.35;;;;;;;24.19;100.00;101960.34;1882817;75;86517;-73
2021/06/10 16:32:06;;;;;;;3.70;3.40;;;;;;;24.13;100.00;101961.73;1948507;73;39541;-76
2021/06/10 16:37:34;;;;;;;3.62;3.33;;;;;;;23.93;100.00;101960.00;1911277;72;40162;-76
2021/06/10 16:42:56;;;;;;;3.80;3.50;;;;;;;23.98;100.00;101954.69;1825353;77;86193;-75
2021/06/10 16:48:21;;;;;;;3.65;3.42;;;;;;;24.02;100.00;101952.81;1915437;73;39523;-74
2021/06/10 16:53:47;;;;;;;4.55;3.80;;;;;;;24.13;100.00;101951.80;1897097;74;86724;-74
2021/06/10 16:59:12;;;;;;;4.03;3.72;;;;;;;24.04;100.00;101960.41;1925351;72;39665;-74
2021/06/10 17:04:36;;;;;;;4.10;3.22;;;;;;;24.12;100.00;101953.80;1877483;75;85704;-77
2021/06/10 17:10:01;;;;;;;3.00;2.65;;;;;;;24.07;100.00;101954.60;1949681;73;40204;-80
2021/06/10 17:15:26;;;;;;;3.00;2.80;;;;;;;23.97;100.00;101955.86;1914016;73;39864;-77
2021/06/10 17:20:50;;;;;;;2.65;2.45;;;;;;;24.01;100.00;101958.24;1856193;74;85997;-81
2021/06/10 17:26:14;;;;;;;3.22;2.92;;;;;;;23.88;100.00;101944.59;1919641;73;39576;-84
2021/06/10 17:31:41;;;;;;;2.45;2.25;;;;;;;23.89;100.00;101939.17;1877099;75;86565;-80
2021/06/10 17:37:06;;;;;;;2.92;2.42;;;;;;;23.85;100.00;101934.53;1923643;73;39581;-78
2021/06/10 17:42:33;;;;;;;2.58;2.37;;;;;;;23.72;100.00;101934.25;1923946;72;86276;-77
2021/06/10 17:47:58;;;;;;;2.30;2.10;;;;;;;23.49;100.00;101938.86;1867289;75;86488;-75
2021/06/10 17:53:23;;;;;;;3.17;2.75;;;;;;;23.52;100.00;101945.28;1944584;73;40266;-80
2021/06/10 17:58:50;;;;;;;2.98;2.62;;;;;;;23.43;100.00;101947.91;1943896;71;86076;-78
2021/06/10 18:04:15;;;;;;;2.60;2.40;;;;;;;23.47;100.00;101944.06;1944264;73;39860;-78
2021/06/10 18:09:39;;;;;;;3.47;2.52;;;;;;;23.35;100.00;101934.63;1882475;75;86522;-75
2021/06/10 18:15:10;;;;;;;3.33;2.20;;;;;;;23.27;100.00;101939.20;1905377;73;39602;-77
2021/06/10 18:20:41;;;;;;;2.47;2.27;;;;;;;23.20;100.00;101934.64;1883584;75;86562;-77
2021/06/10 18:26:25;;;;;;;2.25;2.05;;;;;;;23.23;100.00;101933.14;1990093;71;39501;-78
2021/06/10 18:31:50;;;;;;;2.95;2.33;;;;;;;23.19;100.00;101939.27;1785151;79;86884;-76
2021/06/10 18:37:15;;;;;;;2.50;2.30;;;;;;;23.11;100.00;101933.88;1946119;73;39699;-76
2021/06/10 18:42:42;;;;;;;2.60;2.37;;;;;;;23.05;100.00;101929.59;1892984;74;86157;-75
2021/06/10 18:48:07;;;;;;;2.58;2.25;;;;;;;22.95;100.00;101934.23;1938592;72;39500;-75
2021/06/10 18:53:38;;;;;;;2.70;2.50;;;;;;;22.98;100.00;101944.88;1892631;74;85312;-77
2021/06/10 18:59:02;;;;;;;3.22;2.33;;;;;;;22.80;100.00;101951.25;1949065;73;39482;-76
2021/06/10 19:04:27;;;;;;;3.22;2.92;;;;;;;22.67;100.00;101953.70;1943795;73;39551;-74
2021/06/10 19:09:53;;;;;;;3.17;2.83;;;;;;;22.55;100.00;101950.73;1947376;71;86652;-77
2021/06/10 19:18:41;;;;;;;3.00;2.55;;;;;;;22.55;100.00;101952.98;1957866;70;39514;-74
2021/06/10 19:21:06;;;;;;;3.60;2.60;;;;;;;22.48;100.00;101949.03;1874654;75;931583;-76
2021/06/10 19:23:36;;;;;;;3.30;2.92;;;;;;;22.46;100.00;101953.59;1879846;74;935485;-76
2021/06/10 19:26:13;;;;;;;2.98;2.72;;;;;;;22.44;100.00;101955.13;1880443;74;933681;-76
2021/06/10 19:28:43;;;;;;;3.40;3.10;;;;;;;22.46;100.00;101959.88;1879500;75;935479;-73
2021/06/10 19:31:14;;;;;;;4.12;3.08;;;;;;;22.39;100.00;101952.47;1868598;75;935630;-73
2021/06/10 19:33:50;;;;;;;3.70;3.20;;;;;;;22.38;100.00;101958.72;1880864;74;935484;-73
2021/06/10 19:36:20;;;;;;;3.90;3.20;;;;;;;22.38;100.00;101953.05;1868359;75;935543;-74
2021/06/10 19:38:50;;;;;;;3.85;3.27;;;;;;;22.31;100.00;101959.00;1880700;75;935509;-77
2021/06/10 19:41:20;;;;;;;3.72;3.22;;;;;;;22.25;100.00;101958.34;1868416;74;935688;-83
2021/06/10 19:43:50;;;;;;;3.58;3.05;;;;;;;22.22;100.00;101958.44;1880719;74;935628;-74
2021/06/10 19:52:01;;;;;;;3.67;3.22;;;;;;;22.25;100.00;101957.75;1972844;70;40157;-73
2021/06/10 19:57:29;;;;;;;4.20;3.80;;;;;;;22.18;100.00;101960.28;1913203;73;39416;-71
2021/06/10 20:03:02;;;;;;;4.30;3.75;;;;;;;22.04;100.00;101967.30;1785060;79;86279;-72
2021/06/10 20:08:28;;;;;;;4.10;3.70;;;;;;;21.92;100.00;101970.81;1891835;73;39705;-71
2021/06/10 20:14:12;;;;;;;4.33;3.80;;;;;;;21.85;100.00;101969.64;1840956;76;86119;-74
2021/06/10 20:19:36;;;;;;;4.47;4.08;;;;;;;21.75;100.00;101968.81;1892022;74;86534;-74
2021/06/10 20:25:01;;;;;;;4.70;4.10;;;;;;;21.68;100.00;101973.31;1907634;73;39693;-75
2021/06/10 20:30:29;;;;;;;3.67;3.37;;;;;;;21.52;100.00;101980.02;1944222;72;39762;-75
2021/06/10 20:35:55;;;;;;;5.43;4.23;;;;;;;21.35;100.00;101969.54;1880634;75;86514;-75
2021/06/10 20:44:08;;;;;;;4.07;3.67;;;;;;;21.08;100.00;101984.52;2004478;69;40437;-74
2021/06/10 20:52:20;;;;;;;5.73;4.80;;;;;;;20.93;100.00;101998.51;1997185;69;39585;-71
2021/06/10 20:54:52;;;;;;;4.20;3.70;;;;;;;20.78;100.00;101996.98;1936208;73;934597;-72
2021/06/10 20:57:22;;;;;;;4.87;4.37;;;;;;;20.80;100.00;102000.87;1923558;72;936553;-74
2021/06/10 20:59:52;;;;;;;4.57;4.13;;;;;;;20.77;100.00;102000.95;1936122;73;936543;-74
2021/06/10 21:02:23;;;;;;;4.77;4.27;;;;;;;20.65;100.00;101997.92;1923651;73;936557;-74
2021/06/10 21:04:54;;;;;;;4.57;3.93;;;;;;;20.71;100.00;102001.44;1936258;72;934751;-74
2021/06/10 21:07:24;;;;;;;4.20;3.80;;;;;;;20.65;100.00;102009.21;1923797;73;936748;-72
2021/06/10 21:09:54;;;;;;;4.87;4.10;;;;;;;20.66;100.00;102004.41;1844985;75;934925;-78
2021/06/10 21:12:25;;;;;;;4.53;4.00;;;;;;;20.50;100.00;102000.31;1834964;76;938116;-75
2021/06/10 21:14:55;;;;;;;4.57;4.17;;;;;;;20.54;100.00;102003.58;1863136;74;934867;-75
2021/06/10 21:17:26;;;;;;;6.50;4.70;;;;;;;20.47;100.00;101997.57;1841205;76;936522;-73
2021/06/10 21:19:56;;;;;;;6.00;4.80;;;;;;;20.40;100.00;101996.64;1859526;75;934705;-71
2021/06/10 21:22:26;;;;;;;5.47;4.40;;;;;;;20.41;100.00;101998.28;1852104;75;939054;-73
2021/06/10 21:24:56;;;;;;;5.80;4.87;;;;;;;20.30;100.00;102004.53;1855761;74;934668;-74
2021/06/10 21:27:26;;;;;;;4.80;4.30;;;;;;;20.25;100.00;102007.45;1885876;74;936681;-72
2021/06/10 21:29:56;;;;;;;5.90;5.30;;;;;;;20.28;100.00;102014.69;1865089;75;934746;-75
2021/06/10 21:32:27;;;;;;;5.00;4.50;;;;;;;20.20;100.00;102018.30;1857751;75;936619;-75
2021/06/10 21:34:57;;;;;;;6.80;4.80;;;;;;;20.17;100.00;102020.35;1904932;74;934638;-75
2021/06/10 21:37:28;;;;;;;5.53;4.73;;;;;;;20.19;100.00;102023.70;1875597;75;936640;-74
2021/06/10 21:39:58;;;;;;;4.83;4.33;;;;;;;20.18;100.00;102023.44;1871733;75;934616;-74
2021/06/10 21:42:28;;;;;;;5.70;4.47;;;;;;;20.13;100.00;102023.56;1859370;74;936545;-74
2021/06/10 21:47:52;;;;;;;5.97;4.27;;;;;;;20.01;100.00;102016.27;1847372;76;86461;-75
2021/06/10 21:53:19;;;;;;;5.07;4.27;;;;;;;19.90;100.00;102023.30;1897447;73;40238;-76
2021/06/10 21:58:44;;;;;;;5.23;4.73;;;;;;;19.83;100.00;102022.92;1837286;77;86489;-75
2021/06/10 22:04:33;;;;;;;5.10;4.60;;;;;;;19.83;100.00;102015.30;1980339;71;39580;-75
2021/06/10 22:09:55;;;;;;;6.17;4.80;;;;;;;19.66;100.00;102025.59;1838263;77;86586;-74
2021/06/10 22:15:21;;;;;;;5.00;4.13;;;;;;;19.61;100.00;102022.31;1914611;73;39644;-74
2021/06/10 22:20:48;;;;;;;5.23;4.47;;;;;;;19.61;100.00;102025.12;1882776;75;86100;-76
2021/06/10 22:26:13;;;;;;;5.13;4.40;;;;;;;19.51;100.00;102024.78;1918813;73;39659;-75
2021/06/10 22:31:40;;;;;;;5.20;4.43;;;;;;;19.36;100.00;102026.52;1882568;75;86842;-75
2021/06/10 22:37:24;;;;;;;5.70;4.37;;;;;;;19.34;100.00;102021.77;1974219;71;39494;-75
2021/06/10 22:42:49;;;;;;;5.27;4.40;;;;;;;19.22;100.00;102021.47;1777437;79;86160;-75
2021/06/10 22:48:14;;;;;;;5.43;4.40;;;;;;;19.29;100.00;102025.29;1946547;72;39689;-76
2021/06/10 22:53:40;;;;;;;5.87;4.80;;;;;;;19.25;100.00;102016.64;1892609;74;86301;-76
2021/06/10 22:59:06;;;;;;;6.80;5.03;;;;;;;19.38;100.00;102012.13;1922989;73;39699;-76
2021/06/10 23:04:33;;;;;;;7.30;5.70;;;;;;;19.23;100.00;102017.52;1924947;72;39536;-76
2021/06/10 23:09:57;;;;;;;9.87;6.63;;;;;;;19.30;100.00;102009.45;1785056;79;86568;-76
2021/06/10 23:15:21;;;;;;;8.97;6.50;;;;;;;19.30;100.00;102001.00;1929749;72;39561;-75
2021/06/10 23:20:45;;;;;;;8.17;6.13;;;;;;;19.29;100.00;101992.89;1837629;77;85858;-76
2021/06/10 23:26:13;;;;;;;8.30;6.63;;;;;;;19.19;100.00;101997.33;1946997;73;39475;-76
2021/06/10 23:31:40;;;;;;;6.93;5.93;;;;;;;19.22;100.00;101990.48;1876899;75;86647;-76
2021/06/10 23:37:04;;;;;;;8.47;6.30;;;;;;;19.17;100.00;101989.78;1938898;72;39517;-76